Miramar, Puerto Rico
Current Conditions -  °F | °C
As of 1:56 PM on Friday 26 Dec 2014 (Local Time) from TJSJ Reporting Station
Scattered Clouds Scattered Clouds  
Wind Chill: 83°   Ceiling: Unl
Heat Index: 88°   Visibility: 10mi
Dew Point: 72°   Wind: 16mph
Humidity: 69%   Direction: 60°ENE
Pressure: 30.03"   Gusts: NA
Location:  18.4559°N, 66.0777°W
Report Text: TJSJ 261756Z 06014KT 10SM FEW033 SCT040 28/22 A3003 RMK AO2 SLP167 60000 T02830222 10289 20239 58021
Loading
Personal Weather Stations






























Interactive Weather Map New forecast layout! Learn more

10-Day Weather Forecast

Advertisements
Track Severe Weather on mobile